Terminal Aerodrome Forecast
Issued by NWS

Home | Current Version | Previous Version | Text Only | Print | Product List | Glossary On
Versions: 1 2 3 4 5 6 7 8 9 10 11 12 13 14 15 16 17 18 19 20 21 22 23 24 25 26 27 28
000
FTUS45 KLKN 282300
TAFELY
TAF
KELY 282325Z 2900/2924 VRB06KT P6SM VCSH SCT080 BKN120
      TEMPO 2900/2904 VRB20G35KT -TSRA BKN060CB
     FM290600 19008KT P6SM SCT080 BKN100
      TEMPO 2920/2924 VRB20G35KT TSRA BKN050CB=

USA.gov is the U.S. government's official web portal to all federal, state and local government web resources and services.